Pagrindinis puslapis
METAR-TAF:

METAR-TAF

Oro uostai :

Doha, Kataras

platuma: 25-16-23N, ilguma: 51-36-29E, Aukštis: 4 m

Dabartinis oras

Ataskaita buvo paskelbta 32 minutes, ne 12:00 UTC
Vėjas 15 kt iš Šiaurės
Temperatūra 24°C
Drėgmė 34%
Slėgis 1014 hPa
Matomumas 10 km arba daugiau
nėra debesų žemiau 1500 m ir nėra kamuolinių lietaus debesų

METAR: OTHH 281200Z AUTO 35015KT CAVOK 24/07 Q1014 NOSIG

Laikas: 15:32 (12:32 UTC)

Prognozė

Ataskaita buvo paskelbta 1 valandą ir 32 minutes, ne 11:00 UTC
Prognozė galioja nuo 28 metu 12 UTC su 29 metu 18 UTC
Vėjas 15 kt iš Šiaurės/Šiaurės Vakarų
Matomumas 10 km arba daugiau
nėra debesų žemiau 1500 m ir nėra kamuolinių lietaus debesų
Tapsmas
nuo 28 metu 23 UTC su 29 metu 01 UTC
Vėjas 6 kt iš Vakarų/Šiaurės Vakarų
Tapsmas
nuo 29 metu 11 UTC su 29 metu 13 UTC
Vėjas 8 kt iš Šiaurės Rytų

TAF: OTHH 281100Z 2812/2918 33015KT CAVOK BECMG 2823/2901 30006KT BECMG 2911/2913 05008KT

Orai ataskaitas ir orų prognozės (METAR, TAF).

turimą stotys yra geltonos ir raudonos taškus žemėlapyje.

Perkelti pele per norėdami pamatyti stoties vardą.

Tada spustelėkite, norėdami matyti oro stebėjimo ir prognozės.

Norėdami pakeisti žemėlapį: spustelėkite ant žalios mygtukų su juodo kryžiaus žemyn,; žalią mygtuką su brūkšneliu, jei norite nutolinti; arba žalių rodyklių gretimoms žemėlapius.


METAR-TAF: